Time;durP1;ratioP1;P1;durP2;ratioP2;P2;SDS_P1;SDS_P2;PMS_P1;PMS_P2;Temp;Humidity;BMP_temperature;BMP_pressure;BME280_temperature;BME280_humidity;BME280_pressure;Samples;Min_cycle;Max_cycle;Signal;HPM_P1;HPM_P2
2021/09/22 00:01:32;;;;;;;29.00;24.23;;;16.00;99.90;;;;;;5135652;27;20476;-60
2021/09/22 00:03:59;;;;;;;17.63;15.30;;;16.10;99.90;;;;;;5134463;27;20981;-59
2021/09/22 00:06:27;;;;;;;19.90;16.53;;;16.10;99.90;;;;;;5135350;27;20463;-59
2021/09/22 00:08:54;;;;;;;16.53;14.60;;;16.10;99.90;;;;;;5134655;27;20477;-59
2021/09/22 00:11:21;;;;;;;15.37;12.77;;;16.10;99.90;;;;;;5135206;27;20976;-60
2021/09/22 00:13:48;;;;;;;30.50;22.00;;;16.10;99.90;;;;;;5134989;27;20460;-59
2021/09/22 00:16:15;;;;;;;22.87;18.13;;;16.10;99.90;;;;;;5121948;27;20452;-59
2021/09/22 00:18:42;;;;;;;18.53;12.00;;;16.10;99.90;;;;;;5133148;27;20478;-59
2021/09/22 00:21:09;;;;;;;10.13;8.93;;;16.10;99.90;;;;;;5134451;27;20477;-59
2021/09/22 00:23:37;;;;;;;12.10;8.50;;;16.10;99.90;;;;;;5134543;27;20460;-59
2021/09/22 00:26:04;;;;;;;10.80;8.73;;;16.10;99.90;;;;;;5134187;27;20471;-59
2021/09/22 00:28:31;;;;;;;15.00;9.87;;;16.10;99.90;;;;;;5134916;27;20474;-59
2021/09/22 00:30:58;;;;;;;20.43;14.57;;;16.00;99.90;;;;;;5134538;27;20468;-59
2021/09/22 00:33:25;;;;;;;20.50;15.80;;;16.00;99.90;;;;;;5134678;27;20462;-59
2021/09/22 00:35:52;;;;;;;19.57;13.80;;;16.00;99.90;;;;;;5134727;27;20464;-60
2021/09/22 00:38:18;;;;;;;16.73;11.97;;;16.00;99.90;;;;;;5134141;27;20758;-60
2021/09/22 00:40:48;;;;;;;12.70;8.93;;;16.00;99.90;;;;;;5134841;27;20459;-60
2021/09/22 00:43:15;;;;;;;18.67;9.63;;;16.00;99.90;;;;;;5134009;27;20464;-59
2021/09/22 00:45:43;;;;;;;18.07;16.13;;;15.90;99.90;;;;;;5134661;27;20460;-59
2021/09/22 00:48:10;;;;;;;26.60;18.43;;;15.90;99.90;;;;;;5133664;27;20483;-60
2021/09/22 00:50:37;;;;;;;20.80;13.07;;;15.90;99.90;;;;;;5132714;27;20464;-60
2021/09/22 00:53:04;;;;;;;23.57;16.80;;;15.90;99.90;;;;;;5133810;27;20467;-59
2021/09/22 00:55:31;;;;;;;22.37;17.13;;;15.90;99.90;;;;;;5134225;27;20949;-59
2021/09/22 00:57:59;;;;;;;25.07;17.17;;;15.80;99.90;;;;;;5133765;27;20476;-58
2021/09/22 01:00:30;;;;;;;22.27;16.27;;;15.80;99.90;;;;;;5134222;27;20489;-59
2021/09/22 01:02:57;;;;;;;23.77;17.03;;;15.80;99.90;;;;;;5133780;27;20501;-60
2021/09/22 01:05:27;;;;;;;20.70;14.40;;;15.80;99.90;;;;;;5133774;27;20875;-59
2021/09/22 01:07:54;;;;;;;527.63;452.43;;;15.80;99.90;;;;;;5134102;27;20517;-59
2021/09/22 01:10:21;;;;;;;156.80;126.23;;;15.90;99.90;;;;;;5132699;27;20464;-60
2021/09/22 01:12:48;;;;;;;32.60;27.13;;;16.10;99.90;;;;;;5130793;27;20468;-59
2021/09/22 01:15:28;;;;;;;27.13;22.57;;;16.10;99.90;;;;;;5131272;27;20459;-59
2021/09/22 01:17:55;;;;;;;138.40;122.20;;;16.20;99.90;;;;;;5131920;27;20980;-60
2021/09/22 01:20:22;;;;;;;52.83;41.63;;;16.10;99.90;;;;;;5131242;27;20460;-59
2021/09/22 01:22:50;;;;;;;32.83;23.70;;;16.10;99.90;;;;;;5131147;27;20459;-60
2021/09/22 01:25:18;;;;;;;17.73;15.07;;;16.10;99.90;;;;;;5131301;27;20474;-59
2021/09/22 01:27:47;;;;;;;20.33;16.87;;;16.10;99.90;;;;;;5131548;27;20459;-59
2021/09/22 01:30:15;;;;;;;30.17;20.73;;;16.10;99.90;;;;;;5131151;27;20464;-59
2021/09/22 01:32:49;;;;;;;31.43;21.97;;;16.10;99.90;;;;;;5133538;27;20464;-60
2021/09/22 01:35:16;;;;;;;18.40;14.33;;;16.00;99.90;;;;;;5133229;27;20976;-59
2021/09/22 01:37:43;;;;;;;25.23;19.23;;;16.00;99.90;;;;;;5134046;27;20477;-59
2021/09/22 01:40:12;;;;;;;22.60;16.63;;;16.00;99.90;;;;;;5133350;27;21305;-59
2021/09/22 01:42:39;;;;;;;22.80;15.40;;;15.90;99.90;;;;;;5133708;27;21011;-60
2021/09/22 01:45:07;;;;;;;20.70;17.37;;;15.90;99.90;;;;;;5128808;27;20826;-58
2021/09/22 01:47:33;;;;;;;11.17;8.50;;;15.90;99.90;;;;;;5112813;27;20770;-59
2021/09/22 01:50:01;;;;;;;15.67;12.20;;;15.90;99.90;;;;;;5112670;27;20464;-59
2021/09/22 01:52:28;;;;;;;14.63;11.40;;;15.90;99.90;;;;;;5112777;27;21242;-60
2021/09/22 01:54:55;;;;;;;168.20;137.83;;;15.90;99.90;;;;;;5113102;27;20459;-60
2021/09/22 01:57:23;;;;;;;55.67;48.63;;;15.90;99.90;;;;;;5112668;27;21287;-59
2021/09/22 01:59:50;;;;;;;21.37;13.00;;;15.90;99.90;;;;;;5112974;27;20464;-60
2021/09/22 02:02:17;;;;;;;22.13;11.73;;;15.90;99.90;;;;;;5112695;27;20814;-59
2021/09/22 02:04:44;;;;;;;14.33;11.20;;;15.90;99.90;;;;;;5112783;27;20465;-60
2021/09/22 02:07:11;;;;;;;14.17;8.50;;;15.90;99.90;;;;;;5112783;27;20473;-59
2021/09/22 02:09:38;;;;;;;13.80;7.33;;;15.80;99.90;;;;;;5112925;27;20471;-59
2021/09/22 02:12:06;;;;;;;12.07;7.57;;;15.80;99.90;;;;;;5112797;27;20471;-59
2021/09/22 02:14:34;;;;;;;10.40;6.60;;;15.80;99.90;;;;;;5113169;27;20795;-59
2021/09/22 02:17:01;;;;;;;14.60;8.40;;;15.80;99.90;;;;;;5118059;27;20463;-59
2021/09/22 02:19:29;;;;;;;19.07;10.43;;;15.80;99.90;;;;;;5132900;27;20775;-60
2021/09/22 02:21:56;;;;;;;13.80;8.73;;;15.80;99.90;;;;;;5124444;27;20463;-59
2021/09/22 02:24:23;;;;;;;17.77;10.47;;;15.70;99.90;;;;;;5111202;27;20471;-60
2021/09/22 02:26:51;;;;;;;15.90;8.10;;;15.70;99.90;;;;;;5111724;27;20475;-60
2021/09/22 02:29:19;;;;;;;18.10;9.60;;;15.70;99.90;;;;;;5112149;27;20476;-59
2021/09/22 02:31:47;;;;;;;15.43;7.27;;;15.70;99.90;;;;;;5130418;27;21011;-59
2021/09/22 02:34:14;;;;;;;23.63;13.60;;;15.70;99.90;;;;;;5111133;27;20464;-59
2021/09/22 02:36:41;;;;;;;15.90;9.07;;;15.60;99.90;;;;;;5111728;27;20463;-59
2021/09/22 02:39:09;;;;;;;13.23;8.37;;;15.60;99.90;;;;;;5112255;27;20474;-59
2021/09/22 02:41:36;;;;;;;23.80;9.03;;;15.60;99.90;;;;;;5115775;27;20494;-59
2021/09/22 02:44:03;;;;;;;15.30;11.47;;;15.60;99.90;;;;;;5116796;27;20556;-60
2021/09/22 02:46:30;;;;;;;17.37;8.07;;;15.60;99.90;;;;;;5116374;27;20460;-59
2021/09/22 02:48:58;;;;;;;29.37;21.17;;;15.50;99.90;;;;;;5128539;27;20467;-59
2021/09/22 02:51:25;;;;;;;17.70;8.67;;;15.50;99.90;;;;;;5136721;27;20817;-59
2021/09/22 02:53:52;;;;;;;21.10;9.93;;;15.60;99.90;;;;;;5137067;27;20470;-59
2021/09/22 02:56:22;;;;;;;13.10;5.50;;;15.60;99.90;;;;;;5136597;27;20477;-60
2021/09/22 02:58:49;;;;;;;10.87;4.80;;;15.60;99.90;;;;;;5136927;27;20468;-59
2021/09/22 03:01:15;;;;;;;11.57;5.20;;;15.50;99.90;;;;;;5136584;27;20474;-59
2021/09/22 03:03:42;;;;;;;12.50;6.23;;;15.50;99.90;;;;;;5136812;27;20487;-59
2021/09/22 03:06:11;;;;;;;15.33;7.00;;;15.40;99.90;;;;;;5136379;27;20477;-59
2021/09/22 03:08:39;;;;;;;13.80;6.13;;;15.50;99.90;;;;;;5136888;27;20538;-59
2021/09/22 03:11:08;;;;;;;10.30;6.73;;;15.40;99.90;;;;;;5136645;27;20470;-59
2021/09/22 03:13:36;;;;;;;13.60;5.67;;;15.40;99.90;;;;;;5136425;27;20464;-59
2021/09/22 03:16:03;;;;;;;10.50;6.07;;;15.40;99.90;;;;;;5136634;27;20486;-59
2021/09/22 03:18:30;;;;;;;10.30;5.57;;;15.40;99.90;;;;;;5136287;27;20463;-59
2021/09/22 03:20:58;;;;;;;11.53;5.70;;;15.40;99.90;;;;;;5129407;27;20455;-59
2021/09/22 03:23:26;;;;;;;17.03;6.67;;;15.40;99.90;;;;;;5122040;27;20467;-59
2021/09/22 03:25:53;;;;;;;12.67;5.20;;;15.30;99.90;;;;;;5136235;27;20467;-60
2021/09/22 03:28:21;;;;;;;17.90;4.93;;;15.40;99.90;;;;;;5135749;27;20467;-59
2021/09/22 03:30:48;;;;;;;13.33;5.67;;;15.30;99.90;;;;;;5136408;27;20455;-60
2021/09/22 03:33:15;;;;;;;14.83;6.13;;;15.30;99.90;;;;;;5122371;27;20836;-60
2021/09/22 03:35:42;;;;;;;15.10;5.10;;;15.20;99.90;;;;;;5136181;27;20801;-59
2021/09/22 03:38:09;;;;;;;13.03;5.20;;;15.30;99.90;;;;;;5135891;27;20470;-59
2021/09/22 03:40:38;;;;;;;9.70;4.60;;;15.30;99.90;;;;;;5135643;27;20469;-59
2021/09/22 03:43:05;;;;;;;7.33;4.30;;;15.30;99.90;;;;;;5135992;27;20464;-59
2021/09/22 03:45:32;;;;;;;15.30;8.57;;;15.20;99.90;;;;;;5135106;27;20497;-60
2021/09/22 03:47:59;;;;;;;19.10;7.40;;;15.20;99.90;;;;;;5135675;27;20463;-60
2021/09/22 03:50:26;;;;;;;16.20;8.60;;;15.20;99.90;;;;;;5135155;27;20481;-60
2021/09/22 03:52:53;;;;;;;15.73;7.30;;;15.10;99.90;;;;;;5135663;27;20489;-60
2021/09/22 03:55:20;;;;;;;8.00;5.37;;;15.00;99.90;;;;;;5135094;27;20452;-61
2021/09/22 03:57:48;;;;;;;11.63;4.97;;;15.00;99.90;;;;;;5127962;27;20474;-60
2021/09/22 04:00:16;;;;;;;16.20;6.47;;;15.00;99.90;;;;;;5134795;27;20472;-59
2021/09/22 04:02:43;;;;;;;15.53;6.67;;;15.00;99.90;;;;;;5135231;27;20467;-59
2021/09/22 04:05:10;;;;;;;16.73;6.30;;;15.00;99.90;;;;;;5135388;27;20471;-59
2021/09/22 04:07:37;;;;;;;16.37;6.50;;;15.00;99.90;;;;;;5134763;27;20933;-60
2021/09/22 04:10:05;;;;;;;14.20;6.00;;;15.00;99.90;;;;;;5135460;27;20476;-59
2021/09/22 04:12:32;;;;;;;16.40;5.57;;;15.00;99.90;;;;;;5135086;27;20478;-59
2021/09/22 04:15:00;;;;;;;12.17;6.03;;;15.00;99.90;;;;;;5135223;27;20460;-60
2021/09/22 04:17:27;;;;;;;14.47;6.00;;;15.00;99.90;;;;;;5135085;27;20464;-60
2021/09/22 04:19:54;;;;;;;13.83;5.10;;;15.00;99.90;;;;;;5127088;27;20469;-60
2021/09/22 04:22:20;;;;;;;9.63;4.90;;;14.90;99.90;;;;;;5134037;27;20464;-59
2021/09/22 04:24:47;;;;;;;12.60;5.67;;;14.90;99.90;;;;;;5135273;27;20469;-60
2021/09/22 04:27:14;;;;;;;17.30;5.23;;;14.90;99.90;;;;;;5134419;27;20972;-59
2021/09/22 04:29:42;;;;;;;13.33;5.90;;;14.90;99.90;;;;;;5127005;27;20464;-59
2021/09/22 04:32:11;;;;;;;13.33;5.40;;;14.90;99.90;;;;;;5134959;27;20953;-59
2021/09/22 04:34:38;;;;;;;12.83;6.20;;;14.90;99.90;;;;;;5134609;27;20456;-60
2021/09/22 04:37:05;;;;;;;12.80;6.67;;;15.00;99.90;;;;;;5134762;27;20463;-60
2021/09/22 04:39:32;;;;;;;18.43;7.70;;;14.90;99.90;;;;;;5134426;27;20475;-60
2021/09/22 04:41:59;;;;;;;19.77;6.37;;;15.00;99.90;;;;;;5134741;27;20546;-60
2021/09/22 04:44:26;;;;;;;18.17;6.00;;;15.00;99.90;;;;;;5134455;27;20460;-61
2021/09/22 04:46:53;;;;;;;9.73;4.77;;;14.90;99.90;;;;;;5134598;27;20998;-60
2021/09/22 04:49:21;;;;;;;14.23;5.90;;;15.00;99.90;;;;;;5134216;27;20472;-59
2021/09/22 04:51:48;;;;;;;16.33;7.20;;;15.00;99.90;;;;;;5134550;27;20455;-60
2021/09/22 04:54:15;;;;;;;12.50;6.07;;;14.90;99.90;;;;;;5134574;27;20468;-59
2021/09/22 04:56:42;;;;;;;15.90;6.10;;;15.00;99.90;;;;;;5120645;27;20947;-60
2021/09/22 04:59:09;;;;;;;13.40;6.30;;;15.00;99.90;;;;;;5134382;27;20985;-60
2021/09/22 05:01:36;;;;;;;12.90;5.53;;;14.90;99.90;;;;;;5133993;27;20481;-60
2021/09/22 05:04:02;;;;;;;16.23;6.47;;;15.00;99.90;;;;;;5120209;27;20471;-60
2021/09/22 05:06:30;;;;;;;16.27;5.60;;;14.90;99.90;;;;;;5133805;27;20472;-60
2021/09/22 05:08:57;;;;;;;10.60;5.57;;;15.00;99.90;;;;;;5134214;27;20471;-60
2021/09/22 05:11:26;;;;;;;16.27;8.30;;;15.00;99.90;;;;;;5133732;27;20476;-59
2021/09/22 05:13:52;;;;;;;11.60;5.53;;;15.00;99.90;;;;;;5134521;27;20851;-60
2021/09/22 05:16:19;;;;;;;14.80;5.00;;;15.00;99.90;;;;;;5134129;27;20559;-59
2021/09/22 05:18:46;;;;;;;15.33;6.90;;;15.00;99.90;;;;;;5134010;27;20470;-60
2021/09/22 05:21:13;;;;;;;13.77;6.17;;;15.00;99.90;;;;;;5119750;27;20810;-59
2021/09/22 05:23:41;;;;;;;21.60;7.00;;;15.00;99.90;;;;;;5133641;27;20466;-59
2021/09/22 05:26:08;;;;;;;9.70;5.87;;;15.00;99.90;;;;;;5134009;27;20474;-59
2021/09/22 05:28:35;;;;;;;13.10;6.20;;;15.10;99.90;;;;;;5133429;27;20468;-60
2021/09/22 05:31:02;;;;;;;16.37;5.90;;;15.10;99.90;;;;;;5133843;27;20470;-60
2021/09/22 05:33:28;;;;;;;19.70;6.83;;;15.10;99.90;;;;;;5133568;27;20464;-59
2021/09/22 05:35:55;;;;;;;12.87;7.50;;;15.10;99.90;;;;;;5133717;27;20809;-60
2021/09/22 05:38:22;;;;;;;21.27;9.30;;;15.10;99.90;;;;;;5133819;27;20809;-60
2021/09/22 05:40:50;;;;;;;18.37;7.13;;;15.00;99.90;;;;;;5133514;27;20452;-60
2021/09/22 05:43:17;;;;;;;14.60;7.13;;;15.00;99.90;;;;;;5133704;27;20539;-59
2021/09/22 05:45:44;;;;;;;19.10;7.87;;;15.00;99.90;;;;;;5133230;27;20960;-60
2021/09/22 05:48:11;;;;;;;11.90;7.33;;;15.00;99.90;;;;;;5133736;27;20480;-57
2021/09/22 05:50:38;;;;;;;18.60;9.60;;;15.00;99.90;;;;;;5133123;27;20486;-58
2021/09/22 05:53:05;;;;;;;18.53;9.83;;;15.00;99.90;;;;;;5133721;27;20471;-60
2021/09/22 05:55:32;;;;;;;18.80;7.63;;;15.00;99.90;;;;;;5133193;27;20547;-60
2021/09/22 05:58:00;;;;;;;16.10;7.70;;;15.10;99.90;;;;;;5133546;27;20482;-60
2021/09/22 06:00:27;;;;;;;15.40;7.33;;;15.10;99.90;;;;;;5132796;27;20836;-59
2021/09/22 06:02:54;;;;;;;19.43;7.37;;;15.10;99.90;;;;;;5133448;27;20459;-60
2021/09/22 06:05:20;;;;;;;16.83;7.00;;;15.10;99.90;;;;;;5133096;27;20459;-60
2021/09/22 06:07:47;;;;;;;15.53;6.90;;;15.10;99.90;;;;;;5133115;27;20547;-60
2021/09/22 06:10:14;;;;;;;21.43;8.37;;;15.10;99.90;;;;;;5133148;27;20559;-60
2021/09/22 06:12:41;;;;;;;21.53;8.40;;;15.20;99.90;;;;;;5133025;27;20467;-60
2021/09/22 06:15:10;;;;;;;15.47;6.10;;;15.10;99.90;;;;;;5134034;27;20470;-60
2021/09/22 06:17:37;;;;;;;17.17;6.80;;;15.20;99.90;;;;;;5137310;27;20459;-60
2021/09/22 06:20:05;;;;;;;13.00;5.80;;;15.20;99.90;;;;;;5137220;27;20463;-59
2021/09/22 06:22:32;;;;;;;14.50;6.73;;;15.20;99.90;;;;;;5137220;27;20953;-60
2021/09/22 06:24:59;;;;;;;12.17;6.50;;;15.20;99.90;;;;;;5137372;27;20469;-60
2021/09/22 06:27:28;;;;;;;12.23;5.30;;;15.30;99.90;;;;;;5135157;27;20482;-57
2021/09/22 06:29:55;;;;;;;21.50;7.17;;;15.30;99.90;;;;;;5136559;27;21392;-59
2021/09/22 06:32:23;;;;;;;21.43;7.30;;;15.30;99.90;;;;;;5137359;27;20459;-60
2021/09/22 06:34:50;;;;;;;24.20;8.13;;;15.30;99.90;;;;;;5136765;27;20463;-60
2021/09/22 06:37:16;;;;;;;15.00;6.70;;;15.30;99.90;;;;;;5137358;27;20489;-59
2021/09/22 06:39:43;;;;;;;14.57;6.20;;;15.30;99.90;;;;;;5136628;27;20480;-59
2021/09/22 06:42:10;;;;;;;20.63;5.70;;;15.30;99.90;;;;;;5137288;27;20458;-59
2021/09/22 06:44:37;;;;;;;18.50;7.50;;;15.30;99.90;;;;;;5136836;27;20474;-59
2021/09/22 06:47:04;;;;;;;15.03;6.17;;;15.30;99.90;;;;;;5137201;27;20897;-59
2021/09/22 06:49:33;;;;;;;13.23;6.63;;;15.30;99.90;;;;;;5136549;27;20976;-58
2021/09/22 06:51:59;;;;;;;15.63;6.73;;;15.30;99.90;;;;;;5136924;27;20459;-58
2021/09/22 06:54:26;;;;;;;18.90;8.40;;;15.40;99.90;;;;;;5136964;27;20518;-60
2021/09/22 06:56:53;;;;;;;21.97;7.50;;;15.30;99.90;;;;;;5136379;27;20452;-59
2021/09/22 06:59:20;;;;;;;16.97;6.70;;;15.30;99.90;;;;;;5136741;27;20478;-60
2021/09/22 07:01:47;;;;;;;19.33;5.90;;;15.40;99.90;;;;;;5136346;27;20467;-59
2021/09/22 07:04:14;;;;;;;15.90;7.27;;;15.40;99.90;;;;;;5136611;27;20475;-59
2021/09/22 07:06:42;;;;;;;16.20;6.80;;;15.40;99.90;;;;;;5136166;27;20472;-59
2021/09/22 07:09:09;;;;;;;19.77;7.10;;;15.40;99.90;;;;;;5136429;27;20976;-59
2021/09/22 07:11:35;;;;;;;11.60;5.90;;;15.40;99.90;;;;;;5136463;27;20463;-59
2021/09/22 07:14:03;;;;;;;22.20;7.40;;;15.50;99.90;;;;;;5136316;27;20462;-59
2021/09/22 07:16:30;;;;;;;15.80;6.57;;;15.50;99.90;;;;;;5136610;27;20463;-60
2021/09/22 07:18:58;;;;;;;20.40;6.53;;;15.50;99.90;;;;;;5135886;27;20485;-59
2021/09/22 07:21:25;;;;;;;13.47;5.93;;;15.60;99.90;;;;;;5126250;27;20558;-59
2021/09/22 07:23:53;;;;;;;9.60;4.87;;;15.60;99.90;;;;;;5135834;27;20467;-59
2021/09/22 07:26:20;;;;;;;12.37;5.93;;;15.60;99.90;;;;;;5135663;27;20477;-59
2021/09/22 07:28:47;;;;;;;17.07;6.13;;;15.60;99.90;;;;;;5135682;27;20809;-59
2021/09/22 07:31:14;;;;;;;12.67;5.63;;;15.70;99.90;;;;;;5122389;27;20546;-60
2021/09/22 07:33:40;;;;;;;10.63;5.70;;;15.70;99.90;;;;;;5135741;27;20474;-59
2021/09/22 07:36:07;;;;;;;17.33;5.80;;;15.70;99.90;;;;;;5136049;27;20463;-59
2021/09/22 07:38:34;;;;;;;15.67;6.03;;;15.70;99.90;;;;;;5136012;27;20472;-59
2021/09/22 07:41:03;;;;;;;21.83;6.60;;;15.70;99.90;;;;;;5135904;27;21625;-59
2021/09/22 07:43:30;;;;;;;12.13;5.67;;;15.70;99.90;;;;;;5135805;27;20804;-59
2021/09/22 07:45:57;;;;;;;17.57;7.17;;;15.70;99.90;;;;;;5135525;27;20461;-59
2021/09/22 07:48:23;;;;;;;15.97;6.80;;;15.80;99.90;;;;;;5135756;27;20478;-60
2021/09/22 07:50:50;;;;;;;14.23;7.07;;;15.80;99.90;;;;;;5135329;27;20468;-60
2021/09/22 07:53:17;;;;;;;14.60;6.27;;;15.80;99.90;;;;;;5135850;27;20872;-60
2021/09/22 07:55:44;;;;;;;17.60;7.07;;;15.80;99.90;;;;;;5135355;27;20907;-60
2021/09/22 07:58:13;;;;;;;14.83;7.73;;;15.90;99.90;;;;;;5135586;27;20464;-60
2021/09/22 08:00:40;;;;;;;16.13;9.10;;;15.90;99.90;;;;;;5135483;27;20474;-58
2021/09/22 08:03:06;;;;;;;26.20;8.57;;;15.90;99.90;;;;;;5135383;27;20479;-60
2021/09/22 08:05:38;;;;;;;17.60;7.27;;;15.90;99.90;;;;;;5135525;27;20463;-58
2021/09/22 08:08:06;;;;;;;17.53;7.40;;;15.90;99.90;;;;;;5135037;27;20488;-59
2021/09/22 08:10:33;;;;;;;16.23;5.80;;;15.90;99.90;;;;;;5135479;27;20976;-59
2021/09/22 08:13:00;;;;;;;11.70;5.10;;;15.90;99.90;;;;;;5121231;27;20464;-59
2021/09/22 08:15:28;;;;;;;16.80;5.70;;;15.90;99.90;;;;;;5135445;27;20460;-59
2021/09/22 08:17:55;;;;;;;13.90;6.07;;;16.00;99.90;;;;;;5121155;27;20478;-58
2021/09/22 08:20:22;;;;;;;17.63;6.47;;;16.00;99.90;;;;;;5123020;27;20468;-59
2021/09/22 08:22:50;;;;;;;18.33;6.30;;;16.00;99.90;;;;;;5125200;27;20464;-59
2021/09/22 08:25:19;;;;;;;20.97;7.73;;;16.00;99.90;;;;;;5135056;27;20481;-60
2021/09/22 08:27:46;;;;;;;22.17;7.57;;;16.00;99.90;;;;;;5134408;27;20503;-59
2021/09/22 08:30:14;;;;;;;26.17;7.60;;;16.00;99.90;;;;;;5135191;27;20474;-59
2021/09/22 08:32:43;;;;;;;23.63;6.87;;;16.00;99.90;;;;;;5134910;27;20479;-58
2021/09/22 08:35:13;;;;;;;15.40;6.60;;;16.00;99.90;;;;;;5134476;27;21478;-61
2021/09/22 08:37:40;;;;;;;19.13;7.77;;;16.00;99.90;;;;;;5134236;27;20478;-60
2021/09/22 08:40:09;;;;;;;19.07;7.43;;;15.90;99.90;;;;;;5133974;27;20543;-60
2021/09/22 08:42:36;;;;;;;27.97;8.10;;;16.00;99.90;;;;;;5134833;27;20469;-59
2021/09/22 08:45:03;;;;;;;18.43;6.67;;;16.00;99.90;;;;;;5134312;27;20474;-60
2021/09/22 08:47:31;;;;;;;17.20;7.10;;;16.00;99.90;;;;;;5134757;27;20474;-60
2021/09/22 08:50:00;;;;;;;15.63;6.90;;;16.00;99.90;;;;;;5133994;27;20472;-60
2021/09/22 08:52:26;;;;;;;13.30;5.87;;;16.00;99.90;;;;;;5134642;27;20468;-60
2021/09/22 08:54:53;;;;;;;16.07;6.57;;;16.10;99.90;;;;;;5134171;27;20467;-60
2021/09/22 08:57:20;;;;;;;16.77;6.70;;;16.10;99.90;;;;;;5134641;27;20468;-60
2021/09/22 08:59:47;;;;;;;12.30;5.70;;;16.20;99.90;;;;;;5134018;27;20472;-56
2021/09/22 09:02:16;;;;;;;13.77;6.67;;;16.20;99.90;;;;;;5134487;27;20471;-59
2021/09/22 09:04:46;;;;;;;19.17;6.67;;;16.30;99.90;;;;;;5134356;27;20987;-59
2021/09/22 09:07:14;;;;;;;18.27;5.80;;;16.30;99.90;;;;;;5133724;27;20460;-58
2021/09/22 09:09:43;;;;;;;13.70;6.00;;;16.40;99.90;;;;;;5134471;27;20471;-59
2021/09/22 09:12:18;;;;;;;17.10;7.70;;;16.50;99.90;;;;;;5127649;27;20448;-60
2021/09/22 09:14:51;;;;;;;14.07;6.80;;;16.50;99.90;;;;;;5134278;27;20467;-60
2021/09/22 09:17:36;;;;;;;17.10;8.30;;;16.60;99.90;;;;;;5134016;27;20452;-60
2021/09/22 09:20:19;;;;;;;18.40;9.13;;;16.60;99.90;;;;;;5122468;27;20464;-60
2021/09/22 09:23:08;;;;;;;14.77;6.80;;;16.60;99.90;;;;;;5122628;27;20467;-60
2021/09/22 09:25:38;;;;;;;16.43;8.57;;;16.70;99.90;;;;;;5133866;27;20956;-59
2021/09/22 09:28:26;;;;;;;16.77;8.37;;;16.70;99.90;;;;;;5133939;27;20963;-60
2021/09/22 09:30:55;;;;;;;17.53;8.77;;;16.80;99.90;;;;;;5133444;27;20467;-60
2021/09/22 09:33:54;;;;;;;16.17;6.33;;;16.80;99.90;;;;;;5134065;27;20475;-59
2021/09/22 09:36:28;;;;;;;16.37;6.50;;;16.80;99.90;;;;;;5115033;27;20460;-60
2021/09/22 09:39:01;;;;;;;11.13;4.97;;;16.90;99.90;;;;;;5133766;27;20464;-60
2021/09/22 09:41:34;;;;;;;13.27;5.67;;;16.90;99.90;;;;;;5133501;27;20455;-60
2021/09/22 09:44:03;;;;;;;15.33;6.70;;;17.00;99.90;;;;;;5133579;27;20470;-60
2021/09/22 09:46:31;;;;;;;14.07;5.67;;;17.00;99.90;;;;;;5133199;27;20460;-60
2021/09/22 09:49:01;;;;;;;6.73;4.50;;;17.10;99.90;;;;;;5133470;27;20460;-60
2021/09/22 09:51:37;;;;;;;11.00;5.43;;;17.10;99.90;;;;;;5133186;27;20775;-60
2021/09/22 09:54:15;;;;;;;14.80;5.93;;;17.10;99.90;;;;;;5133558;27;20473;-60
2021/09/22 09:56:42;;;;;;;10.37;5.63;;;17.20;99.90;;;;;;5133280;27;20451;-60
2021/09/22 09:59:09;;;;;;;17.00;5.37;;;17.20;99.90;;;;;;5127769;27;20478;-60
2021/09/22 10:01:38;;;;;;;15.13;6.10;;;17.20;99.90;;;;;;5128569;27;20495;-60
2021/09/22 10:04:07;;;;;;;12.43;5.43;;;17.20;99.90;;;;;;5121935;27;20461;-60
2021/09/22 10:06:34;;;;;;;12.30;5.13;;;17.20;99.90;;;;;;5126683;27;20474;-60
2021/09/22 10:09:01;;;;;;;18.80;4.90;;;17.30;99.90;;;;;;5130067;27;20485;-60
2021/09/22 10:11:29;;;;;;;7.70;4.63;;;17.30;99.90;;;;;;5123576;27;20468;-60
2021/09/22 10:13:56;;;;;;;10.10;4.70;;;17.30;99.90;;;;;;5127302;27;20487;-60
2021/09/22 10:16:24;;;;;;;11.73;4.93;;;17.40;99.90;;;;;;5114833;27;20481;-57
2021/09/22 10:18:51;;;;;;;11.57;4.97;;;17.40;99.90;;;;;;5124865;27;20460;-58
2021/09/22 10:21:21;;;;;;;15.50;5.53;;;17.40;99.90;;;;;;5126105;27;20474;-60
2021/09/22 10:23:50;;;;;;;8.47;4.20;;;17.40;99.90;;;;;;5116612;27;20452;-60
2021/09/22 10:26:17;;;;;;;15.43;5.10;;;17.50;99.90;;;;;;5118970;27;20463;-59
2021/09/22 10:28:47;;;;;;;16.73;5.37;;;17.60;99.90;;;;;;5119216;27;20806;-59
2021/09/22 10:31:33;;;;;;;11.63;5.47;;;17.60;99.90;;;;;;5118128;27;20475;-59
2021/09/22 10:34:00;;;;;;;11.13;5.50;;;17.60;99.90;;;;;;5123270;27;20455;-60
2021/09/22 10:36:35;;;;;;;15.57;6.07;;;17.70;99.90;;;;;;5130198;27;20452;-59
2021/09/22 10:39:03;;;;;;;19.63;7.23;;;17.70;99.90;;;;;;5123998;27;20813;-59
2021/09/22 10:41:41;;;;;;;11.77;5.83;;;17.70;99.90;;;;;;5121089;27;20843;-60
2021/09/22 10:44:14;;;;;;;14.50;5.60;;;17.70;99.90;;;;;;5119392;27;20992;-60
2021/09/22 10:46:41;;;;;;;13.37;5.63;;;17.70;99.90;;;;;;5122720;27;20565;-59
2021/09/22 10:49:15;;;;;;;15.27;5.80;;;17.80;99.90;;;;;;5120956;27;20459;-59
2021/09/22 10:51:45;;;;;;;15.30;6.27;;;17.80;99.90;;;;;;5124616;27;20475;-59
2021/09/22 10:54:15;;;;;;;13.27;5.30;;;17.90;99.90;;;;;;5127081;27;20530;-58
2021/09/22 10:56:56;;;;;;;10.30;6.23;;;17.90;99.90;;;;;;5123366;27;20540;-60
2021/09/22 10:59:37;;;;;;;14.70;5.70;;;17.90;99.90;;;;;;5122539;27;20469;-59
2021/09/22 11:02:06;;;;;;;9.57;4.37;;;17.90;99.90;;;;;;5125660;27;20466;-60
2021/09/22 11:04:59;;;;;;;11.93;4.20;;;18.00;99.90;;;;;;5122721;27;21369;-60
2021/09/22 11:07:56;;;;;;;11.93;4.60;;;18.00;99.90;;;;;;5124410;27;20478;-60
2021/09/22 11:10:46;;;;;;;16.23;4.97;;;18.10;99.90;;;;;;5116178;27;20477;-60
2021/09/22 11:13:34;;;;;;;27.87;14.87;;;18.10;99.90;;;;;;5124010;27;21075;-60
2021/09/22 11:16:18;;;;;;;13.53;7.67;;;18.10;99.90;;;;;;5119783;27;20472;-60
2021/09/22 11:18:48;;;;;;;17.70;6.13;;;18.20;99.90;;;;;;5130257;27;20474;-60
2021/09/22 11:21:19;;;;;;;12.37;5.83;;;18.20;99.90;;;;;;5128748;27;20454;-60
2021/09/22 11:23:46;;;;;;;9.93;4.90;;;18.20;99.90;;;;;;5121065;27;20506;-60
2021/09/22 11:26:13;;;;;;;14.30;8.47;;;18.20;99.90;;;;;;5116397;27;20486;-60
2021/09/22 11:28:51;;;;;;;10.03;7.33;;;18.30;99.90;;;;;;5123134;27;20482;-59
2021/09/22 11:31:21;;;;;;;13.60;5.37;;;18.30;99.90;;;;;;5117502;27;21880;-60
2021/09/22 11:33:52;;;;;;;9.20;5.30;;;18.30;99.90;;;;;;5124233;27;20468;-60
2021/09/22 11:36:18;;;;;;;7.80;5.10;;;18.40;99.90;;;;;;5123413;27;20471;-60
2021/09/22 11:38:45;;;;;;;62.50;42.80;;;18.40;99.90;;;;;;5124333;27;20477;-60
2021/09/22 11:41:14;;;;;;;20.40;12.83;;;18.50;99.90;;;;;;5134113;27;20467;-60
2021/09/22 11:43:41;;;;;;;17.40;9.20;;;18.50;99.90;;;;;;5132185;27;21209;-60
2021/09/22 11:46:08;;;;;;;16.40;7.30;;;18.50;99.90;;;;;;5118371;27;20466;-59
2021/09/22 11:48:38;;;;;;;11.43;6.40;;;18.50;99.90;;;;;;5125724;27;20467;-59
2021/09/22 11:51:07;;;;;;;13.10;5.47;;;18.60;99.90;;;;;;5122268;27;20477;-60
2021/09/22 11:53:36;;;;;;;12.80;6.27;;;18.60;99.90;;;;;;5122297;27;20838;-60
2021/09/22 11:56:04;;;;;;;9.83;5.10;;;18.60;99.90;;;;;;5129971;27;20474;-59
2021/09/22 11:58:33;;;;;;;15.17;8.73;;;18.60;99.90;;;;;;5127068;27;20464;-59
2021/09/22 12:01:02;;;;;;;12.83;8.00;;;18.60;99.90;;;;;;5130252;27;20478;-59
2021/09/22 12:03:32;;;;;;;19.77;8.47;;;18.50;99.90;;;;;;5125928;27;20964;-60
2021/09/22 12:06:06;;;;;;;15.80;7.90;;;18.50;99.90;;;;;;5120621;27;20520;-59
2021/09/22 12:08:34;;;;;;;11.67;5.63;;;18.50;99.90;;;;;;5118959;27;20566;-60
2021/09/22 12:11:02;;;;;;;12.97;6.37;;;18.50;99.90;;;;;;5122428;27;20487;-59
2021/09/22 12:13:29;;;;;;;12.93;8.77;;;18.60;99.90;;;;;;5123842;27;20468;-60
2021/09/22 12:15:58;;;;;;;17.70;6.60;;;18.70;99.90;;;;;;5124674;27;20474;-60
2021/09/22 12:18:26;;;;;;;16.27;6.90;;;18.70;99.90;;;;;;5130445;27;20469;-60
2021/09/22 12:20:55;;;;;;;14.20;5.73;;;18.80;99.90;;;;;;5122353;27;20465;-60
2021/09/22 12:23:28;;;;;;;15.20;5.00;;;18.90;99.90;;;;;;5126246;27;20452;-59
2021/09/22 12:26:11;;;;;;;15.00;8.90;;;18.90;99.90;;;;;;5125647;27;20479;-59
2021/09/22 12:28:39;;;;;;;17.00;7.20;;;18.90;99.90;;;;;;5120466;27;20460;-59
2021/09/22 12:31:17;;;;;;;16.27;9.47;;;19.00;99.90;;;;;;5122863;27;20456;-59
2021/09/22 12:33:44;;;;;;;9.83;4.80;;;19.00;99.90;;;;;;5115997;27;20802;-59
2021/09/22 12:36:14;;;;;;;13.10;7.23;;;18.90;99.90;;;;;;5123461;27;21023;-60
2021/09/22 12:38:47;;;;;;;11.67;5.67;;;19.00;99.90;;;;;;5125224;27;20599;-60
2021/09/22 12:41:14;;;;;;;16.30;6.13;;;19.00;99.90;;;;;;5121072;27;20475;-59
2021/09/22 12:43:42;;;;;;;17.87;9.07;;;19.10;99.90;;;;;;5119359;27;20958;-59